Terminal Aerodrome Forecast
Issued by NWS

Home | Current Version | Previous Version | Text Only | Print | Product List | Glossary On
Versions: 1 2 3 4 5 6 7 8 9 10 11 12 13 14 15
000
FTUS42 KTBW 221100
TAFPGD
TAF
KPGD 221134Z 2212/2312 07010KT P6SM SCT020 OVC050
     FM221500 09013G20KT P6SM VCSH SCT020 OVC040
     FM221800 09013G20KT P6SM VCSH BKN015 OVC030
     FM222300 09010KT P6SM VCSH SCT007 BKN015 OVC030
     FM230600 11008KT 6SM BR SCT007 OVC015=

USA.gov is the U.S. government's official web portal to all federal, state and local government web resources and services.